Terminal Aerodrome Forecast
Issued by NWS

Home | Current Version | Previous Version | Text Only | Print | Product List | Glossary On
Versions: 1 2 3 4 5 6 7 8 9 10 11 12 13 14 15 16 17 18 19 20 21 22 23 24 25 26 27 28 29 30
187
FTUS46 KLOX 192343
TAFLAX
TAF
KLAX 192343Z 2000/2106 27012KT P6SM SCT013 SCT022
     FM200500 27015KT P6SM OVC015
     FM201000 28010KT P6SM OVC020
     FM201800 27018G24KT P6SM BKN025
     FM202000 27016G23KT P6SM OVC100
     FM202300 27020G30KT P6SM SCT250
     FM210200 28015G20KT P6SM SCT250
     FM210500 33008KT P6SM SKC=

USA.gov is the U.S. government's official web portal to all federal, state and local government web resources and services.